sensor_id;sensor_type;location;lat;lon;timestamp;pressure;altitude;pressure_sealevel;temperature;humidity
11888;BME280;6003;42.756;23.130;2023-07-16T00:01:02;158086.75;;;21.95;100.00
11888;BME280;6003;42.756;23.130;2023-07-16T00:03:28;158078.78;;;21.92;100.00
11888;BME280;6003;42.756;23.130;2023-07-16T00:05:55;158078.78;;;21.92;100.00
11888;BME280;6003;42.756;23.130;2023-07-16T00:08:24;158074.81;;;21.90;100.00
11888;BME280;6003;42.756;23.130;2023-07-16T00:10:50;158069.47;;;21.88;100.00
11888;BME280;6003;42.756;23.130;2023-07-16T00:13:17;158058.81;;;21.84;100.00
11888;BME280;6003;42.756;23.130;2023-07-16T00:15:44;158061.47;;;21.85;100.00
11888;BME280;6003;42.756;23.130;2023-07-16T00:18:11;158049.44;;;21.80;100.00
11888;BME280;6003;42.756;23.130;2023-07-16T00:20:37;158041.44;;;21.77;100.00
11888;BME280;6003;42.756;23.130;2023-07-16T00:23:04;158016.16;;;21.68;100.00
11888;BME280;6003;42.756;23.130;2023-07-16T00:25:32;158009.47;;;21.65;100.00
11888;BME280;6003;42.756;23.130;2023-07-16T00:28:00;157977.50;;;21.53;100.00
11888;BME280;6003;42.756;23.130;2023-07-16T00:30:27;157992.19;;;21.58;100.00
11888;BME280;6003;42.756;23.130;2023-07-16T00:32:54;157978.84;;;21.53;100.00
11888;BME280;6003;42.756;23.130;2023-07-16T00:35:21;157978.84;;;21.53;100.00
11888;BME280;6003;42.756;23.130;2023-07-16T00:37:48;157965.50;;;21.48;100.00
11888;BME280;6003;42.756;23.130;2023-07-16T00:40:15;157958.84;;;21.46;100.00
11888;BME280;6003;42.756;23.130;2023-07-16T00:42:43;157952.16;;;21.43;100.00
11888;BME280;6003;42.756;23.130;2023-07-16T00:45:12;157917.50;;;21.30;100.00
11888;BME280;6003;42.756;23.130;2023-07-16T00:47:40;157918.84;;;21.30;100.00
11888;BME280;6003;42.756;23.130;2023-07-16T00:50:09;157909.53;;;21.27;100.00
11888;BME280;6003;42.756;23.130;2023-07-16T00:52:36;157902.84;;;21.24;100.00
11888;BME280;6003;42.756;23.130;2023-07-16T00:55:04;157893.53;;;21.21;100.00
11888;BME280;6003;42.756;23.130;2023-07-16T00:57:32;157896.19;;;21.22;100.00
11888;BME280;6003;42.756;23.130;2023-07-16T01:00:01;157890.84;;;21.19;100.00
11888;BME280;6003;42.756;23.130;2023-07-16T01:02:27;157890.84;;;21.19;100.00
11888;BME280;6003;42.756;23.130;2023-07-16T01:04:55;157890.84;;;21.19;100.00
11888;BME280;6003;42.756;23.130;2023-07-16T01:07:24;157889.53;;;21.19;100.00
11888;BME280;6003;42.756;23.130;2023-07-16T01:09:53;157885.50;;;21.17;100.00
11888;BME280;6003;42.756;23.130;2023-07-16T01:12:21;157877.50;;;21.14;100.00
11888;BME280;6003;42.756;23.130;2023-07-16T01:14:50;157880.22;;;21.15;100.00
11888;BME280;6003;42.756;23.130;2023-07-16T01:17:19;157869.53;;;21.11;100.00
11888;BME280;6003;42.756;23.130;2023-07-16T01:19:46;157860.22;;;21.08;100.00
11888;BME280;6003;42.756;23.130;2023-07-16T01:22:35;157844.22;;;21.02;100.00
11888;BME280;6003;42.756;23.130;2023-07-16T01:25:23;157834.94;;;20.98;100.00
11888;BME280;6003;42.756;23.130;2023-07-16T01:28:22;157818.94;;;20.92;100.00
11888;BME280;6003;42.756;23.130;2023-07-16T01:30:55;157804.28;;;20.86;100.00
11888;BME280;6003;42.756;23.130;2023-07-16T01:33:23;157800.28;;;20.85;100.00
11888;BME280;6003;42.756;23.130;2023-07-16T01:35:51;157789.66;;;20.81;100.00
11888;BME280;6003;42.756;23.130;2023-07-16T01:38:18;157788.31;;;20.80;100.00
11888;BME280;6003;42.756;23.130;2023-07-16T01:40:46;157777.63;;;20.76;100.00
11888;BME280;6003;42.756;23.130;2023-07-16T01:43:13;157770.97;;;20.73;100.00
11888;BME280;6003;42.756;23.130;2023-07-16T01:45:40;157755.00;;;20.67;100.00
11888;BME280;6003;42.756;23.130;2023-07-16T01:48:16;157759.00;;;20.69;100.00
11888;BME280;6003;42.756;23.130;2023-07-16T01:50:48;157755.00;;;20.67;100.00
11888;BME280;6003;42.756;23.130;2023-07-16T01:53:15;157751.03;;;20.66;100.00
11888;BME280;6003;42.756;23.130;2023-07-16T01:55:42;157739.03;;;20.61;100.00
11888;BME280;6003;42.756;23.130;2023-07-16T01:58:09;157731.03;;;20.58;100.00
11888;BME280;6003;42.756;23.130;2023-07-16T02:00:36;157721.72;;;20.55;100.00
11888;BME280;6003;42.756;23.130;2023-07-16T02:03:03;157696.34;;;20.45;100.00
11888;BME280;6003;42.756;23.130;2023-07-16T02:05:31;157703.00;;;20.47;100.00
11888;BME280;6003;42.756;23.130;2023-07-16T02:07:58;157685.72;;;20.41;100.00
11888;BME280;6003;42.756;23.130;2023-07-16T02:10:25;157691.06;;;20.43;100.00
11888;BME280;6003;42.756;23.130;2023-07-16T02:12:52;157681.69;;;20.39;100.00
11888;BME280;6003;42.756;23.130;2023-07-16T02:15:19;157669.75;;;20.35;100.00
11888;BME280;6003;42.756;23.130;2023-07-16T02:17:47;157653.78;;;20.28;100.00
11888;BME280;6003;42.756;23.130;2023-07-16T02:20:14;157656.41;;;20.29;100.00
11888;BME280;6003;42.756;23.130;2023-07-16T02:22:42;157651.09;;;20.27;100.00
11888;BME280;6003;42.756;23.130;2023-07-16T02:25:09;157659.06;;;20.31;100.00
11888;BME280;6003;42.756;23.130;2023-07-16T02:27:35;157655.09;;;20.29;100.00
11888;BME280;6003;42.756;23.130;2023-07-16T02:30:03;157659.06;;;20.31;100.00
11888;BME280;6003;42.756;23.130;2023-07-16T02:32:31;157656.41;;;20.29;100.00
11888;BME280;6003;42.756;23.130;2023-07-16T02:34:57;157653.78;;;20.28;100.00
11888;BME280;6003;42.756;23.130;2023-07-16T02:37:25;157655.09;;;20.29;100.00
11888;BME280;6003;42.756;23.130;2023-07-16T02:39:53;157640.47;;;20.23;100.00
11888;BME280;6003;42.756;23.130;2023-07-16T02:42:19;157635.13;;;20.21;100.00
11888;BME280;6003;42.756;23.130;2023-07-16T02:44:46;157628.47;;;20.19;100.00
11888;BME280;6003;42.756;23.130;2023-07-16T02:47:13;157631.16;;;20.20;100.00
11888;BME280;6003;42.756;23.130;2023-07-16T02:49:40;157601.84;;;20.09;100.00
11888;BME280;6003;42.756;23.130;2023-07-16T02:52:07;157597.84;;;20.07;100.00
11888;BME280;6003;42.756;23.130;2023-07-16T02:54:35;157607.16;;;20.11;100.00
11888;BME280;6003;42.756;23.130;2023-07-16T02:57:05;157611.16;;;20.12;100.00
11888;BME280;6003;42.756;23.130;2023-07-16T02:59:32;157613.81;;;20.13;100.00
11888;BME280;6003;42.756;23.130;2023-07-16T03:01:59;157595.19;;;20.06;100.00
11888;BME280;6003;42.756;23.130;2023-07-16T03:04:26;157613.81;;;20.13;100.00
11888;BME280;6003;42.756;23.130;2023-07-16T03:06:52;157620.47;;;20.16;100.00
11888;BME280;6003;42.756;23.130;2023-07-16T03:09:19;157619.16;;;20.15;100.00
11888;BME280;6003;42.756;23.130;2023-07-16T03:11:46;157620.47;;;20.16;100.00
11888;BME280;6003;42.756;23.130;2023-07-16T03:14:15;157627.13;;;20.18;100.00
11888;BME280;6003;42.756;23.130;2023-07-16T03:16:41;157628.47;;;20.19;100.00
11888;BME280;6003;42.756;23.130;2023-07-16T03:19:08;157643.09;;;20.24;100.00
11888;BME280;6003;42.756;23.130;2023-07-16T03:21:36;157648.44;;;20.26;100.00
11888;BME280;6003;42.756;23.130;2023-07-16T03:24:04;157648.44;;;20.26;100.00
11888;BME280;6003;42.756;23.130;2023-07-16T03:26:31;157681.69;;;20.39;100.00
11888;BME280;6003;42.756;23.130;2023-07-16T03:28:57;157728.41;;;20.57;100.00
11888;BME280;6003;42.756;23.130;2023-07-16T03:31:26;157781.66;;;20.78;100.00
11888;BME280;6003;42.756;23.130;2023-07-16T03:33:52;157840.22;;;21.00;100.00
11888;BME280;6003;42.756;23.130;2023-07-16T03:36:19;157873.53;;;21.13;100.00
11888;BME280;6003;42.756;23.130;2023-07-16T03:38:46;157922.81;;;21.32;100.00
11888;BME280;6003;42.756;23.130;2023-07-16T03:41:13;157962.84;;;21.47;100.00
11888;BME280;6003;42.756;23.130;2023-07-16T03:43:40;158016.16;;;21.68;100.00
11888;BME280;6003;42.756;23.130;2023-07-16T03:46:06;158120.13;;;22.07;100.00
11888;BME280;6003;42.756;23.130;2023-07-16T03:48:35;158232.16;;;22.50;100.00
11888;BME280;6003;42.756;23.130;2023-07-16T03:51:02;158352.22;;;22.96;99.32
11888;BME280;6003;42.756;23.130;2023-07-16T03:53:30;158452.25;;;23.35;96.40
11888;BME280;6003;42.756;23.130;2023-07-16T03:55:58;158474.91;;;23.43;94.72
11888;BME280;6003;42.756;23.130;2023-07-16T03:58:24;158464.28;;;23.39;94.37
11888;BME280;6003;42.756;23.130;2023-07-16T04:00:53;158461.56;;;23.38;94.43
11888;BME280;6003;42.756;23.130;2023-07-16T04:03:20;158464.28;;;23.39;94.45
11888;BME280;6003;42.756;23.130;2023-07-16T04:05:48;158464.28;;;23.39;94.58
11888;BME280;6003;42.756;23.130;2023-07-16T04:08:14;158472.28;;;23.42;94.50
11888;BME280;6003;42.756;23.130;2023-07-16T04:10:42;158477.56;;;23.45;94.37
11888;BME280;6003;42.756;23.130;2023-07-16T04:13:08;158512.28;;;23.58;94.07
11888;BME280;6003;42.756;23.130;2023-07-16T04:15:35;158549.69;;;23.72;92.88
11888;BME280;6003;42.756;23.130;2023-07-16T04:18:02;158724.53;;;24.39;91.35
11888;BME280;6003;42.756;23.130;2023-07-16T04:20:29;158967.69;;;25.32;87.63
11888;BME280;6003;42.756;23.130;2023-07-16T04:23:00;159149.44;;;26.02;85.31
11888;BME280;6003;42.756;23.130;2023-07-16T04:25:27;159332.59;;;26.72;79.17
11888;BME280;6003;42.756;23.130;2023-07-16T04:27:54;159541.28;;;27.52;76.27
11888;BME280;6003;42.756;23.130;2023-07-16T04:30:20;159728.63;;;28.23;72.94
11888;BME280;6003;42.756;23.130;2023-07-16T04:32:47;159886.63;;;28.84;70.87
11888;BME280;6003;42.756;23.130;2023-07-16T04:35:14;160058.00;;;29.49;68.24
11888;BME280;6003;42.756;23.130;2023-07-16T04:37:41;160189.34;;;29.99;66.91
11888;BME280;6003;42.756;23.130;2023-07-16T04:40:10;160307.31;;;30.44;65.27
11888;BME280;6003;42.756;23.130;2023-07-16T04:42:37;160415.88;;;30.86;62.34
11888;BME280;6003;42.756;23.130;2023-07-16T04:45:04;160430.63;;;30.91;63.63
11888;BME280;6003;42.756;23.130;2023-07-16T04:47:32;160519.13;;;31.25;61.18
11888;BME280;6003;42.756;23.130;2023-07-16T04:49:59;160599.56;;;31.56;59.91
11888;BME280;6003;42.756;23.130;2023-07-16T04:52:25;160667.97;;;31.82;59.74
11888;BME280;6003;42.756;23.130;2023-07-16T04:54:52;160604.97;;;31.58;60.36
11888;BME280;6003;42.756;23.130;2023-07-16T04:57:21;160718.97;;;32.01;58.36
11888;BME280;6003;42.756;23.130;2023-07-16T04:59:47;160717.66;;;32.01;57.32
11888;BME280;6003;42.756;23.130;2023-07-16T05:02:14;160733.72;;;32.07;56.62
11888;BME280;6003;42.756;23.130;2023-07-16T05:04:42;160631.78;;;31.68;57.29
11888;BME280;6003;42.756;23.130;2023-07-16T05:07:12;160629.06;;;31.67;57.93
11888;BME280;6003;42.756;23.130;2023-07-16T05:09:39;160622.38;;;31.64;56.42
11888;BME280;6003;42.756;23.130;2023-07-16T05:12:06;160617.03;;;31.62;57.64
11888;BME280;6003;42.756;23.130;2023-07-16T05:14:43;160521.78;;;31.26;58.23
11888;BME280;6003;42.756;23.130;2023-07-16T05:17:10;160307.31;;;30.44;59.70
11888;BME280;6003;42.756;23.130;2023-07-16T05:19:37;160269.81;;;30.30;61.01
11888;BME280;6003;42.756;23.130;2023-07-16T05:22:04;160233.56;;;30.16;61.39
11888;BME280;6003;42.756;23.130;2023-07-16T05:24:31;160280.50;;;30.34;61.33
11888;BME280;6003;42.756;23.130;2023-07-16T05:26:58;160398.50;;;30.79;60.01
11888;BME280;6003;42.756;23.130;2023-07-16T05:29:25;160389.00;;;30.75;60.26
11888;BME280;6003;42.756;23.130;2023-07-16T05:31:53;160545.94;;;31.35;58.54
11888;BME280;6003;42.756;23.130;2023-07-16T05:34:20;160655.91;;;31.77;57.21
11888;BME280;6003;42.756;23.130;2023-07-16T05:36:46;160795.44;;;32.30;55.75
11888;BME280;6003;42.756;23.130;2023-07-16T05:39:13;160613.00;;;31.61;57.90
11888;BME280;6003;42.756;23.130;2023-07-16T05:41:40;160647.88;;;31.74;59.99
11888;BME280;6003;42.756;23.130;2023-07-16T05:44:07;160603.63;;;31.57;58.73
11888;BME280;6003;42.756;23.130;2023-07-16T05:46:35;160555.31;;;31.39;59.65
11888;BME280;6003;42.756;23.130;2023-07-16T05:49:03;160747.16;;;32.12;56.43
11888;BME280;6003;42.756;23.130;2023-07-16T05:51:31;160776.66;;;32.23;56.96
11888;BME280;6003;42.756;23.130;2023-07-16T05:53:58;160843.78;;;32.49;56.01
11888;BME280;6003;42.756;23.130;2023-07-16T05:56:25;160718.97;;;32.01;54.39
11888;BME280;6003;42.756;23.130;2023-07-16T05:58:52;160682.72;;;31.87;57.73
11888;BME280;6003;42.756;23.130;2023-07-16T06:01:18;160727.03;;;32.04;58.99
11888;BME280;6003;42.756;23.130;2023-07-16T06:03:45;160629.06;;;31.67;56.05
11888;BME280;6003;42.756;23.130;2023-07-16T06:06:13;160665.28;;;31.81;55.32
11888;BME280;6003;42.756;23.130;2023-07-16T06:08:40;160650.53;;;31.75;58.33
11888;BME280;6003;42.756;23.130;2023-07-16T06:11:07;160696.19;;;31.92;56.81
11888;BME280;6003;42.756;23.130;2023-07-16T06:13:34;160631.78;;;31.68;57.87
11888;BME280;6003;42.756;23.130;2023-07-16T06:16:01;160599.56;;;31.56;57.25
11888;BME280;6003;42.756;23.130;2023-07-16T06:18:28;160320.69;;;30.49;58.20
11888;BME280;6003;42.756;23.130;2023-07-16T06:20:55;160473.53;;;31.08;60.82
11888;BME280;6003;42.756;23.130;2023-07-16T06:23:23;160578.13;;;31.47;57.97
11888;BME280;6003;42.756;23.130;2023-07-16T06:25:54;160465.50;;;31.05;59.11
11888;BME280;6003;42.756;23.130;2023-07-16T06:28:21;160527.16;;;31.28;57.29
11888;BME280;6003;42.756;23.130;2023-07-16T06:30:49;160457.41;;;31.01;58.97
11888;BME280;6003;42.756;23.130;2023-07-16T06:33:17;160401.16;;;30.80;56.69
11888;BME280;6003;42.756;23.130;2023-07-16T06:35:44;160360.91;;;30.65;59.39
11888;BME280;6003;42.756;23.130;2023-07-16T06:38:12;160304.59;;;30.43;59.99
11888;BME280;6003;42.756;23.130;2023-07-16T06:40:45;160350.16;;;30.61;60.57
11888;BME280;6003;42.756;23.130;2023-07-16T06:43:12;160342.13;;;30.57;61.91
11888;BME280;6003;42.756;23.130;2023-07-16T06:45:39;160332.75;;;30.54;59.89
11888;BME280;6003;42.756;23.130;2023-07-16T06:48:06;160385.03;;;30.74;60.72
11888;BME280;6003;42.756;23.130;2023-07-16T06:50:33;160519.13;;;31.25;57.60
11888;BME280;6003;42.756;23.130;2023-07-16T06:53:00;160465.50;;;31.05;58.79
11888;BME280;6003;42.756;23.130;2023-07-16T06:55:27;160415.88;;;30.86;58.46
11888;BME280;6003;42.756;23.130;2023-07-16T06:57:55;160347.50;;;30.60;59.66
11888;BME280;6003;42.756;23.130;2023-07-16T07:00:22;160433.31;;;30.92;57.46
11888;BME280;6003;42.756;23.130;2023-07-16T07:02:50;160323.38;;;30.50;60.60
11888;BME280;6003;42.756;23.130;2023-07-16T07:05:17;160335.41;;;30.55;58.37
11888;BME280;6003;42.756;23.130;2023-07-16T07:07:44;160583.50;;;31.50;60.94
11888;BME280;6003;42.756;23.130;2023-07-16T07:10:12;160843.78;;;32.49;56.53
11888;BME280;6003;42.756;23.130;2023-07-16T07:12:39;160790.09;;;32.28;56.27
11888;BME280;6003;42.756;23.130;2023-07-16T07:15:08;160741.78;;;32.10;55.15
11888;BME280;6003;42.756;23.130;2023-07-16T07:17:35;160752.53;;;32.14;56.60
11888;BME280;6003;42.756;23.130;2023-07-16T07:20:03;160438.69;;;30.94;57.13
11888;BME280;6003;42.756;23.130;2023-07-16T07:22:30;160615.66;;;31.62;61.10
11888;BME280;6003;42.756;23.130;2023-07-16T07:24:57;160663.97;;;31.80;56.55
11888;BME280;6003;42.756;23.130;2023-07-16T07:27:24;160676.00;;;31.85;58.08
11888;BME280;6003;42.756;23.130;2023-07-16T07:29:51;160527.16;;;31.28;58.22
11888;BME280;6003;42.756;23.130;2023-07-16T07:32:20;160527.16;;;31.28;59.15
11888;BME280;6003;42.756;23.130;2023-07-16T07:34:47;160529.81;;;31.29;57.85
11888;BME280;6003;42.756;23.130;2023-07-16T07:37:15;160283.16;;;30.35;59.08
11888;BME280;6003;42.756;23.130;2023-07-16T07:39:42;160339.47;;;30.56;59.05
11888;BME280;6003;42.756;23.130;2023-07-16T07:42:08;160293.91;;;30.39;61.01
11888;BME280;6003;42.756;23.130;2023-07-16T07:44:35;160283.16;;;30.35;62.65
11888;BME280;6003;42.756;23.130;2023-07-16T07:47:03;160301.94;;;30.42;61.81
11888;BME280;6003;42.756;23.130;2023-07-16T07:49:31;160320.69;;;30.49;61.13
11888;BME280;6003;42.756;23.130;2023-07-16T07:51:58;160248.34;;;30.22;61.26
11888;BME280;6003;42.756;23.130;2023-07-16T07:54:25;160313.97;;;30.47;58.72
11888;BME280;6003;42.756;23.130;2023-07-16T07:56:52;160344.84;;;30.58;60.74
11888;BME280;6003;42.756;23.130;2023-07-16T07:59:19;160283.16;;;30.35;61.21
11888;BME280;6003;42.756;23.130;2023-07-16T08:01:46;160342.13;;;30.57;62.02
11888;BME280;6003;42.756;23.130;2023-07-16T08:04:13;160449.38;;;30.98;59.92
11888;BME280;6003;42.756;23.130;2023-07-16T08:06:41;160379.66;;;30.72;59.41
11888;BME280;6003;42.756;23.130;2023-07-16T08:09:08;160218.81;;;30.10;59.76
11888;BME280;6003;42.756;23.130;2023-07-16T08:11:35;160309.97;;;30.45;62.10
11888;BME280;6003;42.756;23.130;2023-07-16T08:14:02;160406.53;;;30.82;61.20
11888;BME280;6003;42.756;23.130;2023-07-16T08:16:29;160364.91;;;30.66;58.81
11888;BME280;6003;42.756;23.130;2023-07-16T08:18:56;160490.97;;;31.14;61.76
11888;BME280;6003;42.756;23.130;2023-07-16T08:21:23;160564.75;;;31.42;58.20
11888;BME280;6003;42.756;23.130;2023-07-16T08:23:51;160618.38;;;31.63;58.14
11888;BME280;6003;42.756;23.130;2023-07-16T08:26:18;160676.00;;;31.85;60.44
11888;BME280;6003;42.756;23.130;2023-07-16T08:28:45;160728.34;;;32.05;59.02
11888;BME280;6003;42.756;23.130;2023-07-16T08:31:12;160733.72;;;32.07;58.93
11888;BME280;6003;42.756;23.130;2023-07-16T08:33:40;160693.53;;;31.91;56.20
11888;BME280;6003;42.756;23.130;2023-07-16T08:36:09;160697.50;;;31.93;56.78
11888;BME280;6003;42.756;23.130;2023-07-16T08:38:36;160572.78;;;31.45;58.05
11888;BME280;6003;42.756;23.130;2023-07-16T08:41:04;160572.78;;;31.45;59.21
11888;BME280;6003;42.756;23.130;2023-07-16T08:43:33;160595.56;;;31.54;60.61
11888;BME280;6003;42.756;23.130;2023-07-16T08:46:00;160591.53;;;31.53;61.01
11888;BME280;6003;42.756;23.130;2023-07-16T08:48:28;160604.97;;;31.58;58.02
11888;BME280;6003;42.756;23.130;2023-07-16T08:50:57;160647.88;;;31.74;58.36
11888;BME280;6003;42.756;23.130;2023-07-16T08:53:25;160674.66;;;31.84;59.04
11888;BME280;6003;42.756;23.130;2023-07-16T08:55:52;160739.13;;;32.09;59.98
11888;BME280;6003;42.756;23.130;2023-07-16T08:58:22;160763.25;;;32.18;57.17
11888;BME280;6003;42.756;23.130;2023-07-16T09:00:49;160650.53;;;31.75;60.20
11888;BME280;6003;42.756;23.130;2023-07-16T09:03:17;160658.59;;;31.78;60.24
11888;BME280;6003;42.756;23.130;2023-07-16T09:05:44;160682.72;;;31.87;59.89
11888;BME280;6003;42.756;23.130;2023-07-16T09:08:11;160732.41;;;32.06;57.59
11888;BME280;6003;42.756;23.130;2023-07-16T09:10:40;160676.00;;;31.85;59.25
11888;BME280;6003;42.756;23.130;2023-07-16T09:13:07;160645.16;;;31.73;58.37
11888;BME280;6003;42.756;23.130;2023-07-16T09:15:35;160709.59;;;31.98;61.55
11888;BME280;6003;42.756;23.130;2023-07-16T09:18:03;160748.50;;;32.12;57.49
11888;BME280;6003;42.756;23.130;2023-07-16T09:20:30;160701.56;;;31.95;57.68
11888;BME280;6003;42.756;23.130;2023-07-16T09:22:59;160690.81;;;31.90;60.46
11888;BME280;6003;42.756;23.130;2023-07-16T09:25:27;160709.59;;;31.98;58.61
11888;BME280;6003;42.756;23.130;2023-07-16T09:27:54;160701.56;;;31.95;61.81
11888;BME280;6003;42.756;23.130;2023-07-16T09:30:21;160642.50;;;31.72;58.20
11888;BME280;6003;42.756;23.130;2023-07-16T09:32:49;160642.50;;;31.72;59.95
11888;BME280;6003;42.756;23.130;2023-07-16T09:35:16;160696.19;;;31.92;60.73
11888;BME280;6003;42.756;23.130;2023-07-16T09:37:44;160704.22;;;31.96;59.95
11888;BME280;6003;42.756;23.130;2023-07-16T09:40:11;160682.72;;;31.87;58.12
11888;BME280;6003;42.756;23.130;2023-07-16T09:42:40;160689.41;;;31.90;58.25
11888;BME280;6003;42.756;23.130;2023-07-16T09:45:08;160737.78;;;32.08;56.86
11888;BME280;6003;42.756;23.130;2023-07-16T09:47:35;160752.53;;;32.14;59.04
11888;BME280;6003;42.756;23.130;2023-07-16T09:50:04;160749.81;;;32.13;59.85
11888;BME280;6003;42.756;23.130;2023-07-16T09:52:32;160843.78;;;32.49;62.04
11888;BME280;6003;42.756;23.130;2023-07-16T09:55:01;160843.78;;;32.49;59.00
11888;BME280;6003;42.756;23.130;2023-07-16T09:57:33;160900.13;;;32.70;56.04
11888;BME280;6003;42.756;23.130;2023-07-16T10:00:04;160870.59;;;32.59;56.77
11888;BME280;6003;42.756;23.130;2023-07-16T10:02:34;160834.38;;;32.45;58.14
11888;BME280;6003;42.756;23.130;2023-07-16T10:05:12;160819.56;;;32.40;55.93
11888;BME280;6003;42.756;23.130;2023-07-16T10:07:40;160902.78;;;32.71;60.02
11888;BME280;6003;42.756;23.130;2023-07-16T10:10:08;160905.50;;;32.72;58.25
11888;BME280;6003;42.756;23.130;2023-07-16T10:12:36;160902.78;;;32.71;55.76
11888;BME280;6003;42.756;23.130;2023-07-16T10:15:04;160861.22;;;32.55;59.16
11888;BME280;6003;42.756;23.130;2023-07-16T10:17:32;160831.66;;;32.44;56.49
11888;BME280;6003;42.756;23.130;2023-07-16T10:20:01;160822.28;;;32.41;57.66
11888;BME280;6003;42.756;23.130;2023-07-16T10:22:37;160776.66;;;32.23;58.14
11888;BME280;6003;42.756;23.130;2023-07-16T10:25:08;160765.91;;;32.19;57.36
11888;BME280;6003;42.756;23.130;2023-07-16T10:27:35;160739.13;;;32.09;56.82
11888;BME280;6003;42.756;23.130;2023-07-16T10:30:04;160799.47;;;32.32;58.96
11888;BME280;6003;42.756;23.130;2023-07-16T10:32:32;160849.13;;;32.51;58.49
11888;BME280;6003;42.756;23.130;2023-07-16T10:35:00;160918.94;;;32.77;53.90
11888;BME280;6003;42.756;23.130;2023-07-16T10:37:27;160987.41;;;33.03;54.77
11888;BME280;6003;42.756;23.130;2023-07-16T10:39:56;160988.75;;;33.04;54.02
11888;BME280;6003;42.756;23.130;2023-07-16T10:42:24;160968.53;;;32.96;54.62
11888;BME280;6003;42.756;23.130;2023-07-16T10:44:51;160947.06;;;32.88;53.82
11888;BME280;6003;42.756;23.130;2023-07-16T10:47:19;160926.97;;;32.80;53.57
11888;BME280;6003;42.756;23.130;2023-07-16T10:49:48;160935.03;;;32.84;56.75
11888;BME280;6003;42.756;23.130;2023-07-16T10:52:15;160945.72;;;32.88;54.56
11888;BME280;6003;42.756;23.130;2023-07-16T10:54:41;160972.59;;;32.98;55.01
11888;BME280;6003;42.756;23.130;2023-07-16T10:57:10;160988.75;;;33.04;53.11
11888;BME280;6003;42.756;23.130;2023-07-16T10:59:38;160979.34;;;33.00;54.29
11888;BME280;6003;42.756;23.130;2023-07-16T11:02:08;160967.22;;;32.96;56.93
11888;BME280;6003;42.756;23.130;2023-07-16T11:04:36;160977.97;;;33.00;55.75
11888;BME280;6003;42.756;23.130;2023-07-16T11:07:05;160987.41;;;33.03;55.45
11888;BME280;6003;42.756;23.130;2023-07-16T11:09:32;160967.22;;;32.96;53.71
11888;BME280;6003;42.756;23.130;2023-07-16T11:12:05;160940.34;;;32.86;52.33
11888;BME280;6003;42.756;23.130;2023-07-16T11:14:34;160967.22;;;32.96;50.35
11888;BME280;6003;42.756;23.130;2023-07-16T11:17:04;160988.75;;;33.04;51.59
11888;BME280;6003;42.756;23.130;2023-07-16T11:19:32;160953.78;;;32.91;50.32
11888;BME280;6003;42.756;23.130;2023-07-16T11:22:00;160922.94;;;32.79;50.74
11888;BME280;6003;42.756;23.130;2023-07-16T11:24:27;160932.31;;;32.83;53.84
11888;BME280;6003;42.756;23.130;2023-07-16T11:26:55;160870.59;;;32.59;51.04
11888;BME280;6003;42.756;23.130;2023-07-16T11:29:22;160865.22;;;32.57;52.21
11888;BME280;6003;42.756;23.130;2023-07-16T11:31:51;160862.56;;;32.56;53.51
11888;BME280;6003;42.756;23.130;2023-07-16T11:34:21;160914.88;;;32.76;55.39
11888;BME280;6003;42.756;23.130;2023-07-16T11:36:48;160994.13;;;33.06;53.07
11888;BME280;6003;42.756;23.130;2023-07-16T11:39:16;161053.13;;;33.29;49.66
11888;BME280;6003;42.756;23.130;2023-07-16T11:41:53;161062.56;;;33.32;48.69
11888;BME280;6003;42.756;23.130;2023-07-16T11:44:20;161034.38;;;33.21;49.53
11888;BME280;6003;42.756;23.130;2023-07-16T11:46:47;161053.13;;;33.29;45.80
11888;BME280;6003;42.756;23.130;2023-07-16T11:49:15;161061.19;;;33.32;47.14
11888;BME280;6003;42.756;23.130;2023-07-16T11:51:42;161007.50;;;33.11;49.37
11888;BME280;6003;42.756;23.130;2023-07-16T11:54:09;161028.97;;;33.19;50.60
11888;BME280;6003;42.756;23.130;2023-07-16T11:56:36;161037.03;;;33.22;50.64
11888;BME280;6003;42.756;23.130;2023-07-16T11:59:03;161037.03;;;33.22;47.37
11888;BME280;6003;42.756;23.130;2023-07-16T12:01:30;161038.38;;;33.23;49.73
11888;BME280;6003;42.756;23.130;2023-07-16T12:03:57;161030.31;;;33.20;47.20
11888;BME280;6003;42.756;23.130;2023-07-16T12:06:25;160969.88;;;32.97;44.93
11888;BME280;6003;42.756;23.130;2023-07-16T12:08:52;160951.13;;;32.90;46.08
11888;BME280;6003;42.756;23.130;2023-07-16T12:11:20;160961.84;;;32.94;46.79
11888;BME280;6003;42.756;23.130;2023-07-16T12:13:47;160977.97;;;33.00;47.84
11888;BME280;6003;42.756;23.130;2023-07-16T12:16:14;161019.59;;;33.16;47.18
11888;BME280;6003;42.756;23.130;2023-07-16T12:18:40;161041.09;;;33.24;49.69
11888;BME280;6003;42.756;23.130;2023-07-16T12:21:07;161012.88;;;33.13;48.79
11888;BME280;6003;42.756;23.130;2023-07-16T12:23:35;161031.69;;;33.20;47.74
11888;BME280;6003;42.756;23.130;2023-07-16T12:26:02;161039.75;;;33.23;48.68
11888;BME280;6003;42.756;23.130;2023-07-16T12:28:29;161066.56;;;33.34;47.71
11888;BME280;6003;42.756;23.130;2023-07-16T12:30:56;161069.28;;;33.35;49.34
11888;BME280;6003;42.756;23.130;2023-07-16T12:33:23;161042.41;;;33.24;47.32
11888;BME280;6003;42.756;23.130;2023-07-16T12:35:49;161039.75;;;33.23;49.15
11888;BME280;6003;42.756;23.130;2023-07-16T12:38:16;161018.25;;;33.15;47.36
11888;BME280;6003;42.756;23.130;2023-07-16T12:40:45;161031.69;;;33.20;47.00
11888;BME280;6003;42.756;23.130;2023-07-16T12:43:11;161070.59;;;33.35;50.12
11888;BME280;6003;42.756;23.130;2023-07-16T12:45:38;161063.91;;;33.33;50.05
11888;BME280;6003;42.756;23.130;2023-07-16T12:48:05;161074.59;;;33.37;46.35
11888;BME280;6003;42.756;23.130;2023-07-16T12:50:32;161058.50;;;33.31;49.37